createdAt,value
2023-05-06T00:00:36.273Z,9.25
2023-05-06T00:03:04.543Z,9.82
2023-05-06T00:05:32.731Z,10.20
2023-05-06T00:08:01.452Z,9.95
2023-05-06T00:10:29.727Z,9.85
2023-05-06T00:12:58.105Z,9.02
2023-05-06T00:15:26.564Z,9.77
2023-05-06T00:17:55.807Z,9.82
2023-05-06T00:20:23.374Z,9.98
2023-05-06T00:22:51.863Z,9.98
2023-05-06T00:25:20.716Z,10.00
2023-05-06T00:27:48.818Z,9.40
2023-05-06T00:30:17.142Z,9.98
2023-05-06T00:32:45.740Z,10.55
2023-05-06T00:35:14.031Z,10.32
2023-05-06T00:38:07.850Z,10.88
2023-05-06T00:40:38.982Z,9.90
2023-05-06T00:43:09.581Z,10.07
2023-05-06T00:45:40.295Z,10.43
2023-05-06T00:48:10.920Z,10.30
2023-05-06T00:50:41.817Z,10.85
2023-05-06T00:53:12.688Z,10.02
2023-05-06T00:55:43.154Z,9.98
2023-05-06T00:58:15.181Z,9.90
2023-05-06T01:00:44.849Z,10.50
2023-05-06T01:03:13.140Z,10.45
2023-05-06T01:06:51.165Z,10.43
2023-05-06T01:09:32.140Z,11.13
2023-05-06T01:12:27.372Z,12.98
2023-05-06T01:15:17.421Z,12.50
2023-05-06T01:17:53.783Z,10.60
2023-05-06T01:20:27.039Z,10.68
2023-05-06T01:22:56.829Z,10.55
2023-05-06T01:25:26.247Z,10.68
2023-05-06T01:27:54.628Z,10.77
2023-05-06T01:30:36.054Z,11.27
2023-05-06T01:33:29.470Z,10.73
2023-05-06T01:36:49.711Z,10.70
2023-05-06T01:39:30.192Z,11.37
2023-05-06T01:42:03.826Z,10.80
2023-05-06T01:44:38.864Z,11.35
2023-05-06T01:47:13.576Z,10.85
2023-05-06T01:49:44.237Z,11.15
2023-05-06T01:52:16.742Z,10.80
2023-05-06T01:54:46.821Z,11.20
2023-05-06T01:57:17.015Z,11.10
2023-05-06T01:59:47.117Z,11.43
2023-05-06T02:02:17.218Z,11.88
2023-05-06T02:04:47.311Z,12.48
2023-05-06T02:07:17.385Z,11.88
2023-05-06T02:09:47.480Z,11.10
2023-05-06T02:12:17.534Z,10.43
2023-05-06T02:14:47.595Z,11.70
2023-05-06T02:17:17.734Z,10.60
2023-05-06T02:19:47.836Z,10.82
2023-05-06T02:22:16.229Z,12.52
2023-05-06T02:24:44.642Z,11.65
2023-05-06T02:27:13.062Z,11.27
2023-05-06T02:29:41.473Z,11.73
2023-05-06T02:32:09.963Z,11.27
2023-05-06T02:34:38.289Z,11.57
2023-05-06T02:37:06.713Z,10.63
2023-05-06T02:39:35.203Z,12.07
2023-05-06T02:42:03.991Z,12.38
2023-05-06T02:44:32.014Z,10.35
2023-05-06T02:47:00.766Z,10.63
2023-05-06T02:49:28.797Z,11.25
2023-05-06T02:51:57.267Z,10.93
2023-05-06T02:54:27.423Z,11.43
2023-05-06T02:56:57.166Z,11.27
2023-05-06T02:59:25.694Z,11.27
2023-05-06T03:01:53.877Z,10.98
2023-05-06T03:04:22.679Z,11.70
2023-05-06T03:06:50.774Z,11.25
2023-05-06T03:09:19.268Z,11.10
2023-05-06T03:11:48.653Z,11.95
2023-05-06T03:14:16.334Z,12.20
2023-05-06T03:16:44.388Z,11.35
2023-05-06T03:19:12.881Z,11.88
2023-05-06T03:21:41.400Z,11.55
2023-05-06T03:24:09.621Z,11.93
2023-05-06T03:26:38.148Z,10.85
2023-05-06T03:29:06.428Z,11.35
